createdAt,value
2023-04-26T00:00:45.258Z,9.61
2023-04-26T00:01:45.302Z,9.51
2023-04-26T00:02:45.395Z,9.58
2023-04-26T00:03:45.664Z,9.50
2023-04-26T00:04:45.557Z,9.39
2023-04-26T00:05:45.529Z,9.71
2023-04-26T00:06:45.406Z,9.18
2023-04-26T00:07:45.407Z,10.31
2023-04-26T00:08:45.424Z,10.41
2023-04-26T00:09:45.437Z,9.37
2023-04-26T00:10:45.397Z,9.41
2023-04-26T00:11:45.400Z,9.55
2023-04-26T00:12:45.394Z,9.85
2023-04-26T00:13:45.401Z,9.10
2023-04-26T00:14:45.444Z,9.16
2023-04-26T00:15:45.395Z,9.16
2023-04-26T00:16:45.494Z,9.39
2023-04-26T00:17:45.407Z,9.20
2023-04-26T00:18:45.412Z,9.61
2023-04-26T00:19:45.420Z,9.48
2023-04-26T00:20:45.428Z,8.85
2023-04-26T00:21:45.412Z,8.53
2023-04-26T00:22:45.399Z,9.23
2023-04-26T00:23:45.397Z,9.01
2023-04-26T00:24:45.419Z,9.61
2023-04-26T00:25:45.393Z,9.34
2023-04-26T00:26:45.391Z,8.79
2023-04-26T00:27:45.384Z,9.05
2023-04-26T00:28:45.416Z,8.79
2023-04-26T00:29:45.428Z,9.14
2023-04-26T00:30:45.417Z,8.94
2023-04-26T00:31:45.448Z,9.15
2023-04-26T00:32:45.511Z,8.95
2023-04-26T00:33:45.440Z,9.11
2023-04-26T00:34:45.422Z,8.81
2023-04-26T00:35:45.447Z,8.87
2023-04-26T00:36:45.430Z,8.37
2023-04-26T00:37:45.451Z,8.23
2023-04-26T00:38:45.449Z,9.13
2023-04-26T00:39:45.465Z,9.06
2023-04-26T00:40:45.418Z,8.83
2023-04-26T00:41:45.430Z,7.90
2023-04-26T00:42:45.468Z,8.11
2023-04-26T00:43:45.535Z,8.24
2023-04-26T00:44:45.644Z,8.69
2023-04-26T00:45:45.702Z,8.79
2023-04-26T00:46:45.678Z,8.42
2023-04-26T00:47:45.720Z,8.32
2023-04-26T00:48:45.798Z,9.36
2023-04-26T00:49:45.819Z,9.01
2023-04-26T00:50:45.855Z,8.74
2023-04-26T00:51:45.920Z,8.73
2023-04-26T00:52:45.978Z,8.67
2023-04-26T00:53:46.031Z,8.38
2023-04-26T00:54:46.103Z,7.55
2023-04-26T00:55:46.189Z,7.44
2023-04-26T00:56:46.139Z,7.98
2023-04-26T00:57:46.160Z,8.15
2023-04-26T00:58:46.210Z,7.76
2023-04-26T00:59:46.259Z,8.13
2023-04-26T01:32:23.521Z,0.50
2023-04-26T01:33:23.292Z,0.50
2023-04-26T01:34:23.302Z,0.50
2023-04-26T01:35:23.488Z,0.50
2023-04-26T01:36:23.272Z,0.50
2023-04-26T01:37:23.286Z,0.50
2023-04-26T01:38:23.262Z,0.50
2023-04-26T01:39:23.243Z,0.50
2023-04-26T01:40:23.488Z,0.51
2023-04-26T01:41:23.230Z,0.51
2023-04-26T01:42:23.265Z,0.50
2023-04-26T01:43:23.313Z,0.50
2023-04-26T01:44:23.329Z,0.53
2023-04-26T01:45:23.488Z,0.51
2023-04-26T01:46:23.467Z,0.50
2023-04-26T01:47:23.453Z,0.50
2023-04-26T01:48:23.434Z,0.52
2023-04-26T01:49:23.458Z,0.52
2023-04-26T01:50:23.995Z,0.52
2023-04-26T01:51:23.544Z,0.54
2023-04-26T01:52:23.539Z,0.53
2023-04-26T01:53:23.595Z,0.52
2023-04-26T01:54:23.612Z,0.53
2023-04-26T01:55:23.980Z,0.51
2023-04-26T01:56:23.680Z,0.53
2023-04-26T01:57:23.727Z,0.52
2023-04-26T01:58:23.753Z,0.50
2023-04-26T01:59:23.756Z,0.54
2023-04-26T02:00:23.972Z,0.53
2023-04-26T02:01:23.922Z,0.54
2023-04-26T02:02:23.872Z,0.54
2023-04-26T02:03:23.928Z,0.51
2023-04-26T02:04:23.833Z,0.54
2023-04-26T02:05:23.919Z,0.57
2023-04-26T02:06:23.909Z,0.52
2023-04-26T02:07:23.923Z,0.52
2023-04-26T02:08:23.953Z,0.51
2023-04-26T02:09:23.991Z,0.52
2023-04-26T02:10:24.037Z,0.53
2023-04-26T02:11:24.041Z,0.53
2023-04-26T02:12:24.047Z,0.57
2023-04-26T02:13:24.088Z,0.55
2023-04-26T02:14:24.101Z,0.56
2023-04-26T02:15:24.136Z,0.55
2023-04-26T02:16:24.218Z,0.53
2023-04-26T02:17:24.187Z,0.53
2023-04-26T02:18:24.210Z,0.54
2023-04-26T02:19:24.267Z,0.55
2023-04-26T02:20:24.266Z,0.52
2023-04-26T02:21:25.999Z,0.52
2023-04-26T02:22:24.341Z,0.52
2023-04-26T02:23:24.354Z,0.54
2023-04-26T02:24:24.417Z,0.55
2023-04-26T02:25:24.422Z,0.55
2023-04-26T02:26:24.448Z,0.58
2023-04-26T02:27:24.485Z,0.54
2023-04-26T02:28:24.541Z,0.55
2023-04-26T02:29:36.197Z,0.51
2023-04-26T02:30:25.556Z,0.51
2023-04-26T02:31:24.602Z,0.51
2023-04-26T02:32:24.563Z,0.51
2023-04-26T02:33:24.548Z,0.52
2023-04-26T02:34:24.528Z,0.50
2023-04-26T02:35:24.526Z,0.52
2023-04-26T02:36:24.529Z,0.50
2023-04-26T02:37:24.506Z,0.51
2023-04-26T02:38:24.477Z,0.54
2023-04-26T02:39:24.468Z,0.57
2023-04-26T02:40:24.492Z,0.59
2023-04-26T02:41:24.456Z,0.55
2023-04-26T02:42:24.457Z,0.53
2023-04-26T02:43:24.456Z,0.55
2023-04-26T02:44:24.473Z,0.54
2023-04-26T02:45:24.497Z,0.53
2023-04-26T02:46:24.561Z,0.51
2023-04-26T02:47:24.588Z,0.53
2023-04-26T02:48:24.611Z,0.50
2023-04-26T02:49:24.654Z,0.52
2023-04-26T02:50:24.690Z,0.56
2023-04-26T02:51:24.734Z,0.58
2023-04-26T02:52:24.735Z,0.58
2023-04-26T02:53:24.752Z,0.59
2023-04-26T02:54:24.798Z,0.56
2023-04-26T02:55:24.836Z,0.53
2023-04-26T02:56:24.861Z,0.55
2023-04-26T02:57:24.874Z,0.56
2023-04-26T02:58:24.905Z,0.59
2023-04-26T02:59:24.913Z,0.59
2023-04-26T03:00:24.934Z,0.55
2023-04-26T03:01:25.050Z,0.59
2023-04-26T03:02:25.108Z,0.59
2023-04-26T03:03:25.104Z,0.60
2023-04-26T03:04:25.036Z,0.59
2023-04-26T03:05:25.048Z,0.61
2023-04-26T03:06:25.073Z,0.60
2023-04-26T03:07:25.112Z,0.61
2023-04-26T03:08:25.122Z,0.59
2023-04-26T03:09:25.157Z,0.59
2023-04-26T03:10:25.181Z,0.60
2023-04-26T03:11:25.209Z,0.61
2023-04-26T03:12:25.243Z,0.58
2023-04-26T03:13:25.313Z,0.61
2023-04-26T03:14:25.320Z,0.62
2023-04-26T03:15:25.364Z,0.57
2023-04-26T03:16:25.391Z,0.57
2023-04-26T03:17:25.397Z,0.57
2023-04-26T03:18:25.380Z,0.56
2023-04-26T03:19:25.413Z,0.59
2023-04-26T03:20:25.455Z,0.59
2023-04-26T03:21:25.485Z,0.58
2023-04-26T03:22:25.516Z,0.60
2023-04-26T03:23:25.546Z,0.58
2023-04-26T03:24:25.554Z,0.60
2023-04-26T03:25:25.573Z,0.56
2023-04-26T03:26:25.583Z,0.64
2023-04-26T03:27:25.620Z,0.62
2023-04-26T03:28:25.662Z,0.63
2023-04-26T03:29:25.683Z,0.62
2023-04-26T03:30:25.722Z,0.59
2023-04-26T03:31:25.746Z,0.60
2023-04-26T03:32:25.771Z,0.57
2023-04-26T03:33:25.771Z,0.59
2023-04-26T03:34:25.816Z,0.60
2023-04-26T03:35:25.845Z,0.62
2023-04-26T03:36:25.892Z,0.63
2023-04-26T03:37:25.899Z,0.61
2023-04-26T03:38:25.920Z,0.63
2023-04-26T03:39:25.948Z,0.64
2023-04-26T03:40:25.978Z,0.65
2023-04-26T03:41:25.975Z,0.64
2023-04-26T03:42:25.996Z,0.62
2023-04-26T03:43:26.051Z,0.59
2023-04-26T03:44:26.052Z,0.62
2023-04-26T03:45:26.092Z,0.61
2023-04-26T03:46:26.182Z,0.63
2023-04-26T03:47:26.210Z,0.64
2023-04-26T03:48:26.184Z,0.62
2023-04-26T03:49:26.207Z,0.60
2023-04-26T03:50:26.286Z,0.61
2023-04-26T03:51:26.268Z,0.61
2023-04-26T03:52:26.302Z,0.57
2023-04-26T03:53:26.341Z,0.60
2023-04-26T03:54:26.376Z,0.61
2023-04-26T03:55:26.401Z,0.62
2023-04-26T03:56:26.388Z,0.62
2023-04-26T03:57:26.421Z,0.61
2023-04-26T03:58:26.438Z,0.60
2023-04-26T03:59:26.490Z,0.58
2023-04-26T04:00:26.524Z,0.58
2023-04-26T04:01:26.532Z,0.61
2023-04-26T04:02:26.691Z,0.61
2023-04-26T04:03:26.817Z,0.64
2023-04-26T04:04:26.791Z,0.61
2023-04-26T04:05:26.728Z,0.63
2023-04-26T04:06:26.719Z,0.63
2023-04-26T04:07:26.709Z,0.63
2023-04-26T04:08:26.703Z,0.61
2023-04-26T04:09:26.732Z,0.62
2023-04-26T04:10:26.754Z,0.62
2023-04-26T04:11:26.756Z,0.63
2023-04-26T04:12:26.817Z,0.64
2023-04-26T04:13:26.835Z,0.61
2023-04-26T04:14:26.846Z,0.65
2023-04-26T04:15:26.893Z,0.67
2023-04-26T04:16:26.937Z,0.65
2023-04-26T04:17:26.974Z,0.62
2023-04-26T04:18:26.981Z,0.64
2023-04-26T04:19:27.021Z,0.66
2023-04-26T04:20:27.032Z,0.63
2023-04-26T04:21:27.071Z,0.63
2023-04-26T04:22:27.106Z,0.61
2023-04-26T04:23:27.130Z,0.62
2023-04-26T04:24:27.181Z,0.62
2023-04-26T04:25:27.175Z,0.61
2023-04-26T04:26:27.182Z,0.61
2023-04-26T04:27:27.205Z,0.65
2023-04-26T04:28:27.212Z,0.65
2023-04-26T04:29:27.250Z,0.65
2023-04-26T04:30:27.262Z,0.64
2023-04-26T04:31:27.342Z,0.62
2023-04-26T04:32:27.361Z,0.64
2023-04-26T04:33:27.407Z,0.63
2023-04-26T04:34:27.371Z,0.61
2023-04-26T04:35:27.438Z,0.64
2023-04-26T04:36:27.446Z,0.63
2023-04-26T04:37:27.455Z,0.63
2023-04-26T04:38:27.469Z,0.62
2023-04-26T04:39:27.491Z,0.64
2023-04-26T04:40:27.552Z,0.64
2023-04-26T04:41:27.581Z,0.65
2023-04-26T04:42:27.605Z,0.65
2023-04-26T04:43:27.624Z,0.64
2023-04-26T04:44:27.772Z,0.64
2023-04-26T04:45:27.670Z,0.65
2023-04-26T04:46:27.731Z,0.65
2023-04-26T04:47:27.763Z,0.62
2023-04-26T04:48:27.772Z,0.61
2023-04-26T04:49:27.792Z,0.63
2023-04-26T04:50:27.839Z,0.64
2023-04-26T04:51:27.848Z,0.62
2023-04-26T04:52:27.864Z,0.64
2023-04-26T04:53:27.883Z,0.65
2023-04-26T04:54:27.899Z,0.63
2023-04-26T04:55:27.949Z,0.65
2023-04-26T04:56:27.952Z,0.63
2023-04-26T04:57:27.961Z,0.63
2023-04-26T04:58:27.981Z,0.63
2023-04-26T04:59:28.188Z,0.63
2023-04-26T05:00:28.050Z,0.64
2023-04-26T05:01:28.099Z,0.62
2023-04-26T05:02:28.229Z,0.62
2023-04-26T05:03:28.177Z,0.61
2023-04-26T05:04:28.408Z,0.60
2023-04-26T05:05:28.165Z,0.59
2023-04-26T05:06:28.192Z,0.59
2023-04-26T05:07:29.191Z,0.61
2023-04-26T05:08:28.274Z,0.60
2023-04-26T05:09:28.271Z,0.57
2023-04-26T05:10:28.299Z,0.59
2023-04-26T05:11:28.333Z,0.57
2023-04-26T05:12:28.352Z,0.58
2023-04-26T05:13:28.382Z,0.57
2023-04-26T05:14:28.389Z,0.60
2023-04-26T05:15:28.415Z,0.60
2023-04-26T05:16:28.444Z,0.61
2023-04-26T05:17:28.504Z,0.59
2023-04-26T05:18:28.470Z,0.56
2023-04-26T05:19:28.504Z,0.57
2023-04-26T05:20:28.521Z,0.55
2023-04-26T05:21:28.529Z,0.57
2023-04-26T05:22:28.534Z,0.54
2023-04-26T05:23:28.552Z,0.58
2023-04-26T05:24:28.564Z,0.60
2023-04-26T05:25:28.573Z,0.58
2023-04-26T05:26:28.597Z,0.59
2023-04-26T05:27:28.632Z,0.58
2023-04-26T05:28:28.636Z,0.63
2023-04-26T05:29:28.670Z,0.66
2023-04-26T05:30:28.702Z,0.77
2023-04-26T05:31:28.764Z,0.78
2023-04-26T05:32:28.763Z,0.81
2023-04-26T05:33:28.752Z,0.85
2023-04-26T05:34:28.779Z,0.95
2023-04-26T05:35:28.803Z,1.09
2023-04-26T05:36:29.960Z,1.30
2023-04-26T05:37:28.900Z,1.49
2023-04-26T05:38:28.978Z,1.68
2023-04-26T05:39:29.004Z,1.89
2023-04-26T05:40:29.067Z,1.96
2023-04-26T05:41:29.163Z,1.89
2023-04-26T05:42:29.387Z,2.09
2023-04-26T05:43:29.339Z,2.42
2023-04-26T05:44:29.341Z,3.17
2023-04-26T05:45:29.231Z,8.25
2023-04-26T05:46:29.276Z,8.23
2023-04-26T05:47:29.303Z,7.17
2023-04-26T05:48:29.302Z,5.29
2023-04-26T05:49:29.367Z,4.57
2023-04-26T05:50:29.429Z,4.49
2023-04-26T05:51:29.465Z,4.97
2023-04-26T05:52:29.525Z,4.35
2023-04-26T05:53:29.553Z,4.61
2023-04-26T05:54:29.551Z,4.68
2023-04-26T05:55:29.569Z,4.80
2023-04-26T05:56:29.559Z,4.71
2023-04-26T05:57:29.617Z,4.50
2023-04-26T05:58:29.597Z,4.32
2023-04-26T05:59:29.663Z,4.03
2023-04-26T06:00:29.731Z,4.04
2023-04-26T06:01:29.748Z,4.09
2023-04-26T06:02:29.903Z,3.89
2023-04-26T06:03:30.135Z,3.73
2023-04-26T06:04:30.143Z,3.01
2023-04-26T06:05:30.070Z,3.27
2023-04-26T06:06:29.984Z,3.39
2023-04-26T06:07:30.134Z,3.25
2023-04-26T06:08:30.016Z,3.24
2023-04-26T06:09:30.139Z,3.27
2023-04-26T06:10:30.218Z,2.97
2023-04-26T06:11:30.225Z,3.06
2023-04-26T06:12:30.137Z,3.07
2023-04-26T06:13:30.057Z,2.99
2023-04-26T06:14:30.921Z,2.92
2023-04-26T06:15:30.656Z,2.81
2023-04-26T06:16:30.265Z,3.23
2023-04-26T06:17:30.292Z,5.55
2023-04-26T06:18:30.257Z,5.96
2023-04-26T06:19:30.448Z,4.83
2023-04-26T06:20:30.812Z,4.17
2023-04-26T06:21:30.314Z,4.31
2023-04-26T06:22:30.592Z,4.23
2023-04-26T06:23:30.319Z,3.78
2023-04-26T06:24:30.345Z,3.77
2023-04-26T06:25:30.343Z,3.83
2023-04-26T06:26:30.346Z,4.85
2023-04-26T06:27:30.350Z,6.29
2023-04-26T06:28:30.362Z,5.88
2023-04-26T06:29:30.335Z,5.68
2023-04-26T06:30:30.576Z,5.52
2023-04-26T06:31:30.423Z,4.93
2023-04-26T06:32:30.396Z,4.07
2023-04-26T06:33:30.366Z,2.49
2023-04-26T06:34:30.389Z,2.73
2023-04-26T06:35:30.585Z,6.38
2023-04-26T06:36:30.465Z,4.12
2023-04-26T06:37:30.467Z,4.03
2023-04-26T06:38:30.546Z,3.61
2023-04-26T06:39:30.584Z,3.96
2023-04-26T06:40:31.083Z,4.12
2023-04-26T06:41:30.646Z,4.05
2023-04-26T06:42:30.709Z,3.73
2023-04-26T06:43:30.748Z,3.65
2023-04-26T06:44:30.826Z,3.71
2023-04-26T06:45:31.111Z,3.70
2023-04-26T06:46:30.928Z,3.45
2023-04-26T06:47:31.036Z,3.20
2023-04-26T06:48:30.959Z,3.07
2023-04-26T06:49:30.993Z,2.80
2023-04-26T06:50:31.017Z,2.77
2023-04-26T06:51:31.059Z,2.25
2023-04-26T06:52:31.054Z,2.07
2023-04-26T06:53:31.110Z,2.09
2023-04-26T06:54:31.194Z,2.15
2023-04-26T06:55:32.135Z,2.12
2023-04-26T06:56:31.269Z,2.23
2023-04-26T06:57:31.344Z,2.25
2023-04-26T06:58:31.353Z,2.15
2023-04-26T06:59:31.345Z,2.00
2023-04-26T07:00:31.385Z,1.99
2023-04-26T07:01:31.405Z,1.99
2023-04-26T07:02:31.593Z,1.99
2023-04-26T07:03:31.579Z,1.78
2023-04-26T07:04:31.756Z,1.72
2023-04-26T07:05:31.613Z,1.69
2023-04-26T07:06:31.633Z,1.64
2023-04-26T07:07:31.676Z,1.37
2023-04-26T07:08:31.713Z,1.15
2023-04-26T07:09:31.713Z,1.21
2023-04-26T07:10:32.314Z,0.88
2023-04-26T07:11:31.814Z,0.71
2023-04-26T07:12:31.737Z,0.75
2023-04-26T07:13:31.773Z,0.55
2023-04-26T07:14:31.796Z,0.34
2023-04-26T07:15:31.829Z,0.34
2023-04-26T07:16:31.938Z,0.34
2023-04-26T07:17:31.992Z,0.34
2023-04-26T07:18:31.987Z,0.34
2023-04-26T07:19:31.982Z,0.35
2023-04-26T07:20:32.097Z,0.38
2023-04-26T07:21:32.008Z,0.51
2023-04-26T07:22:32.053Z,0.51
2023-04-26T07:23:32.028Z,0.76
2023-04-26T07:24:32.027Z,0.97
2023-04-26T07:25:32.115Z,0.84
2023-04-26T07:26:32.066Z,0.92
2023-04-26T07:27:32.193Z,0.54
2023-04-26T07:28:32.093Z,0.35
2023-04-26T07:29:32.150Z,0.34
2023-04-26T07:30:32.673Z,0.40
2023-04-26T07:32:32.242Z,0.74
2023-04-26T07:33:32.357Z,0.75
2023-04-26T07:34:32.258Z,0.81
2023-04-26T07:35:32.608Z,1.02
2023-04-26T07:36:32.342Z,1.56
2023-04-26T07:37:32.572Z,2.01
2023-04-26T07:38:32.471Z,2.21
2023-04-26T07:39:32.486Z,2.77
2023-04-26T07:40:32.757Z,2.60
2023-04-26T07:41:32.557Z,2.81
2023-04-26T07:42:32.549Z,3.17
2023-04-26T07:43:32.592Z,2.71
2023-04-26T07:44:32.582Z,2.87
2023-04-26T07:45:32.643Z,2.89
2023-04-26T07:46:32.599Z,2.56
2023-04-26T07:47:32.616Z,2.33
2023-04-26T07:48:32.626Z,2.85
2023-04-26T07:49:32.658Z,2.85
2023-04-26T07:50:33.190Z,3.11
2023-04-26T07:51:32.701Z,3.29
2023-04-26T07:52:32.671Z,3.25
2023-04-26T07:53:32.757Z,2.92
2023-04-26T07:54:32.704Z,2.58
2023-04-26T07:55:33.112Z,3.27
2023-04-26T07:56:32.803Z,3.43
2023-04-26T07:57:32.754Z,3.70
2023-04-26T07:58:32.769Z,3.07
2023-04-26T07:59:32.773Z,3.35
2023-04-26T08:00:33.129Z,3.62
2023-04-26T08:01:32.800Z,3.97
2023-04-26T08:02:43.933Z,4.13
2023-04-26T08:03:33.966Z,4.14
2023-04-26T08:04:33.150Z,4.59
2023-04-26T08:05:33.056Z,7.10
2023-04-26T08:06:32.769Z,10.22
2023-04-26T08:07:32.742Z,13.19
2023-04-26T08:08:32.852Z,10.11
2023-04-26T08:09:32.857Z,10.11
2023-04-26T08:10:32.904Z,9.74
2023-04-26T08:11:32.834Z,8.79
2023-04-26T08:12:32.737Z,7.97
2023-04-26T08:13:32.692Z,7.71
2023-04-26T08:14:32.699Z,7.55
2023-04-26T08:15:33.143Z,7.74
2023-04-26T08:16:32.878Z,5.75
2023-04-26T08:17:32.773Z,5.43
2023-04-26T08:18:32.775Z,6.09
2023-04-26T08:19:32.842Z,6.67
2023-04-26T08:20:32.889Z,6.32
2023-04-26T08:21:32.905Z,4.41
2023-04-26T08:22:32.971Z,2.62
2023-04-26T08:23:32.994Z,3.19
2023-04-26T08:24:33.077Z,3.92
2023-04-26T08:25:33.127Z,6.05
2023-04-26T08:26:33.160Z,6.14
2023-04-26T08:27:33.202Z,7.01
2023-04-26T08:28:33.274Z,9.39
2023-04-26T08:29:33.312Z,9.60
2023-04-26T08:30:33.440Z,10.71
2023-04-26T08:31:33.503Z,9.61
2023-04-26T08:32:33.432Z,6.40
2023-04-26T08:33:33.411Z,4.00
2023-04-26T08:34:33.412Z,5.56
2023-04-26T08:35:33.424Z,5.15
2023-04-26T08:36:33.468Z,4.56
2023-04-26T08:37:33.724Z,3.86
2023-04-26T08:38:33.489Z,3.91
2023-04-26T08:39:33.538Z,4.97
2023-04-26T08:40:33.686Z,5.99
2023-04-26T08:41:33.640Z,6.71
2023-04-26T08:42:33.660Z,8.22
2023-04-26T08:43:33.701Z,8.48
2023-04-26T08:44:33.726Z,8.95
2023-04-26T08:45:33.730Z,4.66
2023-04-26T08:46:33.787Z,3.83
2023-04-26T08:47:33.782Z,2.82
2023-04-26T08:48:33.786Z,4.02
2023-04-26T08:49:33.776Z,5.93
2023-04-26T08:50:34.153Z,6.75
2023-04-26T08:51:33.882Z,5.53
2023-04-26T08:52:33.960Z,5.08
2023-04-26T08:53:34.018Z,5.48
2023-04-26T08:54:34.047Z,5.23
2023-04-26T08:55:34.048Z,5.86
2023-04-26T08:56:34.083Z,6.12
2023-04-26T08:57:34.154Z,4.71
2023-04-26T08:58:34.222Z,5.87
2023-04-26T08:59:34.213Z,6.59
2023-04-26T09:00:34.286Z,6.92
2023-04-26T09:01:34.368Z,5.54
2023-04-26T09:02:34.581Z,6.44
2023-04-26T09:03:34.654Z,5.84
2023-04-26T09:04:34.743Z,6.55
2023-04-26T09:05:34.579Z,5.03
2023-04-26T09:06:34.598Z,5.81
2023-04-26T09:07:34.682Z,4.30
2023-04-26T09:08:34.729Z,5.52
2023-04-26T09:09:34.780Z,5.91
2023-04-26T09:10:34.840Z,6.26
2023-04-26T09:11:34.963Z,6.23
2023-04-26T09:12:34.939Z,6.42
2023-04-26T09:13:34.969Z,6.41
2023-04-26T09:14:35.016Z,6.09
2023-04-26T09:15:35.164Z,3.72
2023-04-26T09:16:35.159Z,3.33
2023-04-26T09:17:35.192Z,2.32
2023-04-26T09:18:35.200Z,2.40
2023-04-26T09:19:35.264Z,2.26
2023-04-26T09:20:35.663Z,2.62
2023-04-26T09:21:35.652Z,2.43
2023-04-26T09:22:35.253Z,2.85
2023-04-26T09:23:35.359Z,2.44
2023-04-26T09:24:35.361Z,2.48
2023-04-26T09:25:35.426Z,2.10
2023-04-26T09:26:35.659Z,1.03
2023-04-26T09:27:35.528Z,1.15
2023-04-26T09:28:35.546Z,0.98
2023-04-26T09:29:35.575Z,0.89
2023-04-26T09:30:35.648Z,0.70
2023-04-26T09:31:35.682Z,0.66
2023-04-26T09:32:35.688Z,0.70
2023-04-26T09:33:35.637Z,0.96
2023-04-26T09:34:35.618Z,1.10
2023-04-26T09:35:35.630Z,1.10
2023-04-26T09:36:35.641Z,0.84
2023-04-26T09:37:39.087Z,0.65
2023-04-26T09:38:36.637Z,0.65
2023-04-26T09:39:35.791Z,0.60
2023-04-26T09:40:35.656Z,0.55
2023-04-26T09:41:35.608Z,0.34
2023-04-26T09:42:35.585Z,0.39
2023-04-26T09:43:35.887Z,0.35
2023-04-26T09:44:35.587Z,0.34
2023-04-26T09:45:35.594Z,0.34
2023-04-26T09:46:35.640Z,0.34
2023-04-26T09:47:35.562Z,0.34
2023-04-26T09:48:35.617Z,0.34
2023-04-26T09:49:35.553Z,0.34
2023-04-26T09:50:35.565Z,1.11
2023-04-26T09:51:35.524Z,2.32
2023-04-26T09:52:35.539Z,1.07
2023-04-26T09:53:35.545Z,1.55
2023-04-26T09:54:35.536Z,0.34
2023-04-26T09:55:36.108Z,0.34
2023-04-26T09:56:35.601Z,0.34
2023-04-26T09:57:35.654Z,0.34
2023-04-26T09:58:35.702Z,0.34
2023-04-26T09:59:35.768Z,0.34
2023-04-26T10:00:35.817Z,0.34
2023-04-26T10:01:35.947Z,0.34
2023-04-26T10:02:36.012Z,0.34
2023-04-26T10:03:36.069Z,0.34
2023-04-26T10:04:36.077Z,0.34
2023-04-26T10:05:35.985Z,0.34
2023-04-26T10:06:35.956Z,0.34
2023-04-26T10:07:35.981Z,0.38
2023-04-26T10:08:36.029Z,0.50
2023-04-26T10:09:36.096Z,0.54
2023-04-26T10:10:36.129Z,0.70
2023-04-26T10:11:36.227Z,1.79
2023-04-26T10:12:36.264Z,3.15
2023-04-26T10:13:36.358Z,4.70
2023-04-26T10:14:36.431Z,6.98
2023-04-26T10:15:36.566Z,11.62
2023-04-26T10:16:36.484Z,14.87
2023-04-26T10:17:36.531Z,16.43
2023-04-26T10:18:36.406Z,14.18
2023-04-26T10:19:36.430Z,14.53
2023-04-26T10:20:36.466Z,13.27
2023-04-26T10:21:36.690Z,11.03
2023-04-26T10:22:36.462Z,7.34
2023-04-26T10:23:36.463Z,6.67
2023-04-26T10:24:36.518Z,6.36
2023-04-26T10:25:36.512Z,7.12
2023-04-26T10:26:36.683Z,4.09
2023-04-26T10:27:36.601Z,6.63
2023-04-26T10:28:36.648Z,8.44
2023-04-26T10:29:36.703Z,6.73
2023-04-26T10:30:36.676Z,9.54
2023-04-26T10:31:36.727Z,13.12
2023-04-26T10:32:36.713Z,12.41
2023-04-26T10:33:36.719Z,24.90
2023-04-26T10:34:36.723Z,25.60
2023-04-26T10:35:36.760Z,18.77
2023-04-26T10:36:37.191Z,18.79
2023-04-26T10:37:36.900Z,24.92
2023-04-26T10:38:36.943Z,34.46
2023-04-26T10:39:37.004Z,44.70
2023-04-26T10:40:37.040Z,78.66
2023-04-26T10:41:37.192Z,113.33
2023-04-26T10:42:37.124Z,159.16
2023-04-26T10:43:37.157Z,163.51
2023-04-26T10:44:37.220Z,163.41
2023-04-26T10:45:37.279Z,148.44
2023-04-26T10:46:37.320Z,135.09
2023-04-26T10:47:37.671Z,151.35
2023-04-26T10:48:37.324Z,163.50
2023-04-26T10:49:37.370Z,174.90
2023-04-26T10:50:37.419Z,187.52
2023-04-26T10:51:37.434Z,191.54
2023-04-26T10:52:37.483Z,203.47
2023-04-26T10:53:37.520Z,215.58
2023-04-26T10:54:37.526Z,215.23
2023-04-26T10:55:37.569Z,226.32
2023-04-26T10:56:37.576Z,226.35
2023-04-26T10:57:37.771Z,236.82
2023-04-26T10:58:37.819Z,237.35
2023-04-26T10:59:51.128Z,235.55
2023-04-26T11:00:38.873Z,235.77
2023-04-26T11:01:37.774Z,240.37
2023-04-26T11:02:37.784Z,247.12
2023-04-26T11:03:38.294Z,270.84
2023-04-26T11:04:37.792Z,285.20
2023-04-26T11:05:37.812Z,303.97
2023-04-26T11:06:37.734Z,304.57
2023-04-26T11:07:37.743Z,315.66
2023-04-26T11:08:37.726Z,307.93
2023-04-26T11:09:37.706Z,318.93
2023-04-26T11:10:37.706Z,301.25
2023-04-26T11:11:37.732Z,288.29
2023-04-26T11:12:37.693Z,286.75
2023-04-26T11:13:37.697Z,301.61
2023-04-26T11:14:37.686Z,299.46
2023-04-26T11:15:37.709Z,293.45
2023-04-26T11:16:37.723Z,311.91
2023-04-26T11:17:37.783Z,302.59
2023-04-26T11:18:37.713Z,308.23
2023-04-26T11:19:37.744Z,310.99
2023-04-26T11:20:37.745Z,291.87
2023-04-26T11:21:37.787Z,299.85
2023-04-26T11:22:37.772Z,311.47
2023-04-26T11:23:37.797Z,301.74
2023-04-26T11:24:37.837Z,310.09
2023-04-26T11:25:37.843Z,305.64
2023-04-26T11:26:37.869Z,299.00
2023-04-26T11:27:37.903Z,287.31
2023-04-26T11:28:37.936Z,293.95
2023-04-26T11:29:37.935Z,286.88
2023-04-26T11:30:37.989Z,282.62
2023-04-26T11:31:38.021Z,285.14
2023-04-26T11:32:38.158Z,288.60
2023-04-26T11:33:38.019Z,301.47
2023-04-26T11:34:38.084Z,286.88
2023-04-26T11:35:38.237Z,266.75
2023-04-26T11:36:38.204Z,272.84
2023-04-26T11:37:38.243Z,272.16
2023-04-26T11:38:38.317Z,270.48
2023-04-26T11:39:38.347Z,264.38
2023-04-26T11:40:38.518Z,262.99
2023-04-26T11:41:38.441Z,265.95
2023-04-26T11:42:38.530Z,263.51
2023-04-26T11:43:38.623Z,246.15
2023-04-26T11:44:38.600Z,247.00
2023-04-26T11:45:38.640Z,257.25
2023-04-26T11:46:38.654Z,243.13
2023-04-26T11:47:38.709Z,239.93
2023-04-26T11:48:38.650Z,242.46
2023-04-26T11:49:38.650Z,243.16
2023-04-26T11:50:38.683Z,232.71
2023-04-26T11:51:38.715Z,237.26
2023-04-26T11:52:38.752Z,230.96
2023-04-26T11:53:38.925Z,238.24
2023-04-26T11:54:38.789Z,231.15
2023-04-26T11:55:38.834Z,216.56
2023-04-26T11:56:38.864Z,225.44
2023-04-26T11:57:38.873Z,230.41
2023-04-26T11:58:38.893Z,231.24
2023-04-26T11:59:38.901Z,221.38
2023-04-26T12:00:38.976Z,209.69
2023-04-26T12:01:39.070Z,222.96
2023-04-26T12:02:39.223Z,221.75
2023-04-26T12:03:39.190Z,220.43
2023-04-26T12:04:39.361Z,220.79
2023-04-26T12:05:39.231Z,221.82
2023-04-26T12:06:39.199Z,206.58
2023-04-26T12:07:39.258Z,205.83
2023-04-26T12:08:39.292Z,209.25
2023-04-26T12:09:39.333Z,218.28
2023-04-26T12:10:39.434Z,223.50
2023-04-26T12:11:39.776Z,212.91
2023-04-26T12:12:39.649Z,218.56
2023-04-26T12:13:39.598Z,207.64
2023-04-26T12:14:39.652Z,214.53
2023-04-26T12:15:39.760Z,208.79
2023-04-26T12:16:39.793Z,212.71
2023-04-26T12:17:39.848Z,215.34
2023-04-26T12:18:39.777Z,235.60
2023-04-26T12:19:39.821Z,231.56
2023-04-26T12:20:39.808Z,234.72
2023-04-26T12:21:39.853Z,238.38
2023-04-26T12:22:39.928Z,241.39
2023-04-26T12:23:39.981Z,235.58
2023-04-26T12:24:40.036Z,240.50
2023-04-26T12:25:40.047Z,241.80
2023-04-26T12:26:40.090Z,237.00
2023-04-26T12:27:40.145Z,234.73
2023-04-26T12:28:40.161Z,234.58
2023-04-26T12:29:40.196Z,234.91
2023-04-26T12:30:40.190Z,242.25
2023-04-26T12:31:40.337Z,235.26
2023-04-26T12:32:40.257Z,233.35
2023-04-26T12:33:40.383Z,240.91
2023-04-26T12:34:40.260Z,250.13
2023-04-26T12:35:40.267Z,249.46
2023-04-26T12:36:40.324Z,246.13
2023-04-26T12:37:40.329Z,251.30
2023-04-26T12:38:40.499Z,252.47
2023-04-26T12:39:40.423Z,245.38
2023-04-26T12:40:40.455Z,239.50
2023-04-26T12:41:40.455Z,241.58
2023-04-26T12:42:40.475Z,241.78
2023-04-26T12:43:40.468Z,248.06
2023-04-26T12:44:40.483Z,237.52
2023-04-26T12:45:40.464Z,232.26
2023-04-26T12:46:40.587Z,233.51
2023-04-26T12:47:40.560Z,232.89
2023-04-26T12:48:40.565Z,233.06
2023-04-26T12:49:40.566Z,227.94
2023-04-26T12:50:40.601Z,220.21
2023-04-26T12:51:40.766Z,224.94
2023-04-26T12:52:40.700Z,212.79
2023-04-26T12:53:40.715Z,213.71
2023-04-26T12:54:40.735Z,211.50
2023-04-26T12:55:40.789Z,212.32
2023-04-26T12:56:41.275Z,205.41
2023-04-26T12:57:40.837Z,207.12
2023-04-26T12:58:40.885Z,209.42
2023-04-26T12:59:40.914Z,209.80
2023-04-26T13:00:42.629Z,206.30
2023-04-26T13:01:41.002Z,206.33
2023-04-26T13:02:41.154Z,206.23
2023-04-26T13:03:41.112Z,208.91
2023-04-26T13:04:41.862Z,199.30
2023-04-26T13:05:40.909Z,190.46
2023-04-26T13:06:40.910Z,190.06
2023-04-26T13:07:40.931Z,194.34
2023-04-26T13:08:40.885Z,189.78
2023-04-26T13:09:40.901Z,192.84
2023-04-26T13:10:40.885Z,185.36
2023-04-26T13:11:40.876Z,184.23
2023-04-26T13:12:40.871Z,176.78
2023-04-26T13:13:44.131Z,174.86
2023-04-26T13:14:40.868Z,174.99
2023-04-26T13:15:40.886Z,169.88
2023-04-26T13:16:40.853Z,164.78
2023-04-26T13:17:40.918Z,163.65
2023-04-26T13:18:40.834Z,168.04
2023-04-26T13:19:40.842Z,168.53
2023-04-26T13:20:40.811Z,168.69
2023-04-26T13:21:41.256Z,165.44
2023-04-26T13:22:40.819Z,162.65
2023-04-26T13:23:40.809Z,157.30
2023-04-26T13:24:40.808Z,158.42
2023-04-26T13:25:40.774Z,158.87
2023-04-26T13:26:40.802Z,157.59
2023-04-26T13:27:40.767Z,159.92
2023-04-26T13:28:40.751Z,160.92
2023-04-26T13:29:40.788Z,152.35
2023-04-26T13:30:40.773Z,147.11
2023-04-26T13:31:41.265Z,156.17
2023-04-26T13:32:40.835Z,147.90
2023-04-26T13:33:40.728Z,145.78
2023-04-26T13:34:40.735Z,144.00
2023-04-26T13:35:40.709Z,143.93
2023-04-26T13:36:40.731Z,142.86
2023-04-26T13:37:40.712Z,137.53
2023-04-26T13:38:40.708Z,141.03